Terminal Aerodrome Forecast
Issued by NWS

Home | Current Version | Previous Version | Text Only | Print | Product List | Glossary On
Versions: 1 2 3 4 5 6 7 8 9 10 11 12
000
FTUS43 KGRB 231729
TAFMTW
TAF
KMTW 231729Z 2318/2418 17017G25KT P6SM OVC070
     FM240300 16011KT P6SM -RA OVC040 WS020/20045KT
     FM240600 17009KT 6SM -RA BR SCT025 OVC035 WS020/24004KT
      TEMPO 2406/2410 3SM -RA BR BKN025
     FM241000 20007KT 3SM -RA BR OVC015 WS020/27030KT
     FM241300 24005KT 4SM BR VCSH OVC008
     FM241700 32007KT 3SM -RA BR OVC008=

USA.gov is the U.S. government's official web portal to all federal, state and local government web resources and services.